Time,TemperatureF,DewpointF,PressureIn,WindDirection,WindDirectionDegrees,WindSpeedMPH,WindSpeedGustMPH,Humidity,HourlyPrecipIn,Conditions,Clouds,dailyrainin,SoftwareType,DateUTC
2013-05-07 00:00:00,46.4,43.3,29.87,West,271,0.0,6.0,89,0.00,,,0.01,Wunderground v.1.15,2013-05-07 04:00:00,
2013-05-07 00:05:00,46.2,43.1,29.86,West,271,0.0,6.0,89,0.00,,,0.01,Wunderground v.1.15,2013-05-07 04:05:00,
2013-05-07 00:09:00,46.1,43.3,29.86,West,271,0.0,0.0,90,0.00,,,0.01,Wunderground v.1.15,2013-05-07 04:09:00,
2013-05-07 00:14:00,46.0,43.2,29.86,West,271,0.0,0.0,90,0.00,,,0.01,Wunderground v.1.15,2013-05-07 04:14:00,
2013-05-07 00:19:00,46.1,43.3,29.86,West,271,0.0,0.0,90,0.00,,,0.01,Wunderground v.1.15,2013-05-07 04:19:00,
2013-05-07 00:24:00,46.1,43.3,29.86,West,271,0.0,0.0,90,0.00,,,0.01,Wunderground v.1.15,2013-05-07 04:24:00,
2013-05-07 00:34:00,46.3,43.5,29.86,West,271,0.0,0.0,90,0.00,,,0.01,Wunderground v.1.15,2013-05-07 04:34:00,
2013-05-07 00:39:00,46.4,43.9,29.86,West,271,0.0,0.0,91,0.00,,,0.01,Wunderground v.1.15,2013-05-07 04:39:00,
2013-05-07 00:44:00,46.4,43.9,29.86,West,271,0.0,0.0,91,0.00,,,0.01,Wunderground v.1.15,2013-05-07 04:44:00,
2013-05-07 00:49:00,46.5,44.0,29.86,West,271,0.0,0.0,91,0.00,,,0.01,Wunderground v.1.15,2013-05-07 04:49:00,
2013-05-07 00:54:00,46.7,44.2,29.86,West,271,0.0,0.0,91,0.00,,,0.01,Wunderground v.1.15,2013-05-07 04:54:00,
2013-05-07 00:59:00,46.7,44.2,29.86,West,271,0.0,0.0,91,0.00,,,0.01,Wunderground v.1.15,2013-05-07 04:59:00,
2013-05-07 01:04:00,46.9,44.4,29.86,West,271,0.0,0.0,91,0.00,,,0.01,Wunderground v.1.15,2013-05-07 05:04:00,
2013-05-07 01:14:00,47.0,44.5,29.85,West,271,0.0,0.0,91,0.00,,,0.01,Wunderground v.1.15,2013-05-07 05:14:00,
2013-05-07 01:19:00,47.0,44.5,29.85,West,271,0.0,0.0,91,0.00,,,0.01,Wunderground v.1.15,2013-05-07 05:19:00,
2013-05-07 01:24:00,47.0,44.5,29.85,West,271,0.0,0.0,91,0.00,,,0.01,Wunderground v.1.15,2013-05-07 05:24:00,
2013-05-07 01:34:00,47.0,44.5,29.85,West,271,0.0,0.0,91,0.00,,,0.01,Wunderground v.1.15,2013-05-07 05:34:00,
2013-05-07 01:39:00,46.9,44.4,29.85,West,271,0.0,0.0,91,0.00,,,0.01,Wunderground v.1.15,2013-05-07 05:39:00,
2013-05-07 01:44:00,46.9,44.4,29.85,West,271,0.0,0.0,91,0.00,,,0.01,Wunderground v.1.15,2013-05-07 05:44:00,
2013-05-07 01:49:00,46.8,44.3,29.85,West,271,0.0,0.0,91,0.00,,,0.00,Wunderground v.1.15,2013-05-07 05:49:00,
2013-05-07 01:54:00,46.6,44.1,29.85,West,271,0.0,0.0,91,0.00,,,0.00,Wunderground v.1.15,2013-05-07 05:54:00,
2013-05-07 01:59:00,46.3,44.1,29.84,West,271,0.0,0.0,92,0.00,,,0.00,Wunderground v.1.15,2013-05-07 05:59:00,
2013-05-07 02:04:00,46.2,44.3,29.84,West,271,0.0,0.0,93,0.00,,,0.00,Wunderground v.1.15,2013-05-07 06:04:00,
2013-05-07 02:14:00,45.6,43.4,29.84,West,271,0.0,0.0,92,0.00,,,0.00,Wunderground v.1.15,2013-05-07 06:14:00,
2013-05-07 02:24:00,45.2,43.3,29.84,West,271,0.0,0.0,93,0.00,,,0.00,Wunderground v.1.15,2013-05-07 06:24:00,
2013-05-07 02:29:00,45.0,43.1,29.84,West,271,0.0,0.0,93,0.00,,,0.00,Wunderground v.1.15,2013-05-07 06:29:00,
2013-05-07 02:34:00,45.0,43.4,29.84,West,271,0.0,0.0,94,0.00,,,0.00,Wunderground v.1.15,2013-05-07 06:34:00,
2013-05-07 02:44:00,44.7,43.1,29.84,West,271,0.0,0.0,94,0.00,,,0.00,Wunderground v.1.15,2013-05-07 06:44:00,
2013-05-07 02:54:00,44.9,43.6,29.84,West,271,0.0,0.0,95,0.00,,,0.00,Wunderground v.1.15,2013-05-07 06:54:00,
2013-05-07 02:59:00,44.8,43.5,29.84,West,271,0.0,0.0,95,0.00,,,0.00,Wunderground v.1.15,2013-05-07 06:59:00,
2013-05-07 03:04:00,44.7,43.4,29.84,West,271,0.0,0.0,95,0.00,,,0.00,Wunderground v.1.15,2013-05-07 07:04:00,
2013-05-07 03:14:00,44.7,43.4,29.84,West,271,0.0,0.0,95,0.00,,,0.00,Wunderground v.1.15,2013-05-07 07:14:00,
2013-05-07 03:19:00,44.9,43.8,29.84,West,271,0.0,0.0,96,0.00,,,0.00,Wunderground v.1.15,2013-05-07 07:19:00,
2013-05-07 03:24:00,44.9,43.8,29.84,West,271,0.0,0.0,96,0.00,,,0.00,Wunderground v.1.15,2013-05-07 07:24:00,
2013-05-07 03:29:00,44.9,43.8,29.84,West,271,0.0,0.0,96,0.00,,,0.00,Wunderground v.1.15,2013-05-07 07:29:00,
2013-05-07 03:39:00,44.8,43.7,29.84,West,271,0.0,0.0,96,0.00,,,0.00,Wunderground v.1.15,2013-05-07 07:39:00,
2013-05-07 03:44:00,44.7,43.6,29.84,West,271,0.0,0.0,96,0.00,,,0.00,Wunderground v.1.15,2013-05-07 07:44:00,
2013-05-07 03:49:00,44.7,43.6,29.84,West,271,0.0,0.0,96,0.00,,,0.00,Wunderground v.1.15,2013-05-07 07:49:00,
2013-05-07 03:54:00,44.7,43.6,29.84,West,271,0.0,0.0,96,0.00,,,0.00,Wunderground v.1.15,2013-05-07 07:54:00,
2013-05-07 03:59:00,44.7,43.6,29.84,West,271,0.0,0.0,96,0.00,,,0.00,Wunderground v.1.15,2013-05-07 07:59:00,
2013-05-07 04:09:00,44.8,43.7,29.84,West,271,0.0,0.0,96,0.00,,,0.00,Wunderground v.1.15,2013-05-07 08:09:00,
2013-05-07 04:14:00,44.8,43.7,29.84,West,271,0.0,0.0,96,0.00,,,0.00,Wunderground v.1.15,2013-05-07 08:14:00,
2013-05-07 04:19:00,44.8,43.7,29.84,West,271,0.0,0.0,96,0.00,,,0.00,Wunderground v.1.15,2013-05-07 08:19:00,
2013-05-07 04:24:00,44.7,43.6,29.84,West,271,0.0,0.0,96,0.00,,,0.00,Wunderground v.1.15,2013-05-07 08:24:00,
2013-05-07 04:29:00,44.8,43.7,29.84,West,271,0.0,0.0,96,0.00,,,0.00,Wunderground v.1.15,2013-05-07 08:29:00,
2013-05-07 04:34:00,44.8,43.7,29.84,West,271,0.0,0.0,96,0.00,,,0.00,Wunderground v.1.15,2013-05-07 08:34:00,
2013-05-07 04:44:00,44.8,43.7,29.84,West,271,0.0,0.0,96,0.00,,,0.00,Wunderground v.1.15,2013-05-07 08:44:00,
2013-05-07 04:50:00,44.6,43.5,29.84,West,271,0.0,0.0,96,0.00,,,0.00,Wunderground v.1.15,2013-05-07 08:50:00,
2013-05-07 04:55:00,44.5,43.4,29.84,West,271,0.0,0.0,96,0.00,,,0.00,Wunderground v.1.15,2013-05-07 08:55:00,
2013-05-07 05:00:00,44.5,43.4,29.84,West,271,0.0,0.0,96,0.00,,,0.00,Wunderground v.1.15,2013-05-07 09:00:00,
2013-05-07 05:05:00,44.4,43.3,29.84,West,271,0.0,0.0,96,0.00,,,0.00,Wunderground v.1.15,2013-05-07 09:05:00,
2013-05-07 05:15:00,44.2,43.1,29.84,West,271,0.0,0.0,96,0.00,,,0.00,Wunderground v.1.15,2013-05-07 09:15:00,
2013-05-07 05:20:00,44.1,43.0,29.84,West,271,0.0,0.0,96,0.00,,,0.00,Wunderground v.1.15,2013-05-07 09:20:00,
2013-05-07 05:25:00,44.0,42.9,29.84,West,271,0.0,0.0,96,0.00,,,0.00,Wunderground v.1.15,2013-05-07 09:25:00,
2013-05-07 05:30:00,44.0,43.2,29.84,West,271,0.0,0.0,97,0.00,,,0.00,Wunderground v.1.15,2013-05-07 09:30:00,
2013-05-07 05:35:00,44.0,42.9,29.84,West,271,0.0,0.0,96,0.00,,,0.00,Wunderground v.1.15,2013-05-07 09:35:00,
2013-05-07 05:40:00,43.9,42.8,29.84,West,271,0.0,0.0,96,0.00,,,0.00,Wunderground v.1.15,2013-05-07 09:40:00,
2013-05-07 05:50:00,43.9,43.1,29.85,West,271,0.0,0.0,97,0.00,,,0.00,Wunderground v.1.15,2013-05-07 09:50:00,
2013-05-07 05:55:00,43.9,43.1,29.84,West,271,0.0,0.0,97,0.00,,,0.00,Wunderground v.1.15,2013-05-07 09:55:00,
2013-05-07 06:00:00,44.0,43.2,29.85,West,271,0.0,0.0,97,0.00,,,0.00,Wunderground v.1.15,2013-05-07 10:00:00,
2013-05-07 06:05:00,44.0,43.2,29.85,West,271,0.0,1.0,97,0.00,,,0.00,Wunderground v.1.15,2013-05-07 10:05:00,
2013-05-07 06:15:00,44.0,43.2,29.85,West,271,0.0,0.0,97,0.00,,,0.00,Wunderground v.1.15,2013-05-07 10:15:00,
2013-05-07 06:20:00,43.9,43.1,29.85,West,271,0.0,0.0,97,0.00,,,0.00,Wunderground v.1.15,2013-05-07 10:20:00,
2013-05-07 06:30:00,43.9,43.1,29.86,West,271,0.0,0.0,97,0.00,,,0.00,Wunderground v.1.15,2013-05-07 10:30:00,
2013-05-07 06:35:00,43.9,43.1,29.86,West,271,0.0,0.0,97,0.00,,,0.00,Wunderground v.1.15,2013-05-07 10:35:00,
2013-05-07 06:40:00,43.9,43.1,29.86,West,271,0.0,0.0,97,0.00,,,0.00,Wunderground v.1.15,2013-05-07 10:40:00,
2013-05-07 06:45:00,44.0,43.2,29.86,West,271,0.0,0.0,97,0.00,,,0.00,Wunderground v.1.15,2013-05-07 10:45:00,
2013-05-07 06:50:00,44.0,43.2,29.86,West,271,0.0,1.0,97,0.00,,,0.00,Wunderground v.1.15,2013-05-07 10:50:00,
2013-05-07 06:55:00,44.2,43.4,29.87,NNW,341,1.0,2.0,97,0.00,,,0.00,Wunderground v.1.15,2013-05-07 10:55:00,
2013-05-07 07:00:00,44.2,43.4,29.87,NNW,341,1.0,1.0,97,0.00,,,0.00,Wunderground v.1.15,2013-05-07 11:00:00,
2013-05-07 07:05:00,44.4,43.6,29.87,NNW,341,1.0,2.0,97,0.00,,,0.00,Wunderground v.1.15,2013-05-07 11:05:00,
2013-05-07 07:15:00,44.6,43.8,29.88,NNW,341,0.0,2.0,97,0.00,,,0.00,Wunderground v.1.15,2013-05-07 11:15:00,
2013-05-07 07:20:00,44.7,43.9,29.88,NNW,341,1.0,1.0,97,0.00,,,0.00,Wunderground v.1.15,2013-05-07 11:20:00,
2013-05-07 07:25:00,44.7,43.9,29.88,NNW,341,1.0,2.0,97,0.00,,,0.00,Wunderground v.1.15,2013-05-07 11:25:00,
2013-05-07 07:30:00,44.7,43.9,29.88,NNW,341,2.0,2.0,97,0.00,,,0.00,Wunderground v.1.15,2013-05-07 11:30:00,
2013-05-07 07:35:00,44.7,43.9,29.88,NNW,341,1.0,3.0,97,0.00,,,0.00,Wunderground v.1.15,2013-05-07 11:35:00,
2013-05-07 07:40:00,44.8,44.0,29.88,NNW,341,1.0,1.0,97,0.00,,,0.00,Wunderground v.1.15,2013-05-07 11:40:00,
2013-05-07 07:49:00,45.0,44.2,29.88,NNW,341,1.0,5.0,97,0.00,,,0.00,Wunderground v.1.15,2013-05-07 11:49:00,
2013-05-07 07:55:00,45.0,44.2,29.88,North,349,2.0,5.0,97,0.00,,,0.00,Wunderground v.1.15,2013-05-07 11:55:00,
2013-05-07 08:00:00,45.0,44.2,29.88,North,349,2.0,2.0,97,0.00,,,0.00,Wunderground v.1.15,2013-05-07 12:00:00,
2013-05-07 08:05:00,45.2,44.4,29.88,NNW,348,2.0,6.0,97,0.00,,,0.00,Wunderground v.1.15,2013-05-07 12:05:00,
2013-05-07 08:15:00,45.3,44.5,29.88,North,350,3.0,5.0,97,0.00,,,0.00,Wunderground v.1.15,2013-05-07 12:15:00,
2013-05-07 08:20:00,45.4,44.6,29.88,North,350,3.0,3.0,97,0.00,,,0.00,Wunderground v.1.15,2013-05-07 12:20:00,
2013-05-07 08:30:00,45.5,44.4,29.89,North,350,1.0,5.0,96,0.00,,,0.00,Wunderground v.1.15,2013-05-07 12:30:00,
2013-05-07 08:39:00,45.6,44.5,29.89,North,350,2.0,2.0,96,0.00,,,0.00,Wunderground v.1.15,2013-05-07 12:39:00,
2013-05-07 08:45:00,45.8,44.7,29.89,North,350,2.0,3.0,96,0.00,,,0.00,Wunderground v.1.15,2013-05-07 12:45:00,
2013-05-07 08:50:00,45.9,44.8,29.90,North,350,1.0,1.0,96,0.00,,,0.00,Wunderground v.1.15,2013-05-07 12:50:00,
2013-05-07 08:55:00,46.0,44.9,29.89,North,350,1.0,5.0,96,0.00,,,0.00,Wunderground v.1.15,2013-05-07 12:55:00,
2013-05-07 09:05:00,46.3,44.7,29.89,NNW,346,2.0,6.0,94,0.00,,,0.00,Wunderground v.1.15,2013-05-07 13:05:00,
2013-05-07 09:14:00,46.7,45.1,29.89,NNW,346,3.0,6.0,94,0.00,,,0.00,Wunderground v.1.15,2013-05-07 13:14:00,
2013-05-07 09:20:00,46.9,45.3,29.89,NNW,346,2.0,6.0,94,0.00,,,0.00,Wunderground v.1.15,2013-05-07 13:20:00,
2013-05-07 09:25:00,47.2,45.6,29.89,NNW,346,2.0,6.0,94,0.00,,,0.00,Wunderground v.1.15,2013-05-07 13:25:00,
2013-05-07 09:30:00,47.5,45.6,29.89,NNW,346,2.0,6.0,93,0.00,,,0.00,Wunderground v.1.15,2013-05-07 13:30:00,
2013-05-07 09:39:00,47.9,45.7,29.90,NNW,346,3.0,3.0,92,0.00,,,0.00,Wunderground v.1.15,2013-05-07 13:39:00,
2013-05-07 09:44:00,48.3,46.1,29.90,NNW,346,2.0,6.0,92,0.00,,,0.00,Wunderground v.1.15,2013-05-07 13:44:00,
2013-05-07 09:49:00,48.7,46.5,29.90,NW,326,1.0,1.0,92,0.00,,,0.00,Wunderground v.1.15,2013-05-07 13:49:00,
2013-05-07 09:55:00,49.1,46.9,29.90,NW,326,1.0,4.0,92,0.00,,,0.00,Wunderground v.1.15,2013-05-07 13:55:00,
2013-05-07 10:00:00,49.9,47.1,29.90,NNW,327,0.0,6.0,90,0.00,,,0.00,Wunderground v.1.15,2013-05-07 14:00:00,
2013-05-07 10:05:00,50.5,47.4,29.90,NNW,327,1.0,6.0,89,0.00,,,0.00,Wunderground v.1.15,2013-05-07 14:05:00,
2013-05-07 10:14:00,51.4,47.7,29.90,NNW,327,2.0,6.0,87,0.00,,,0.00,Wunderground v.1.15,2013-05-07 14:14:00,
2013-05-07 10:19:00,52.2,48.4,29.90,NNW,327,2.0,6.0,87,0.00,,,0.00,Wunderground v.1.15,2013-05-07 14:19:00,
2013-05-07 10:24:00,52.8,48.7,29.90,NNW,340,1.0,6.0,86,0.00,,,0.00,Wunderground v.1.15,2013-05-07 14:24:00,
2013-05-07 10:29:00,53.3,48.3,29.90,NNW,327,2.0,6.0,83,0.00,,,0.00,Wunderground v.1.15,2013-05-07 14:29:00,
2013-05-07 10:34:00,54.0,49.6,29.90,NNW,332,3.0,6.0,85,0.00,,,0.00,Wunderground v.1.15,2013-05-07 14:34:00,
2013-05-07 10:39:00,54.8,49.7,29.90,NNW,344,4.0,6.0,83,0.00,,,0.00,Wunderground v.1.15,2013-05-07 14:39:00,
2013-05-07 10:49:00,56.4,49.3,29.90,NNW,333,4.0,6.0,77,0.00,,,0.00,Wunderground v.1.15,2013-05-07 14:49:00,
2013-05-07 10:54:00,56.5,49.4,29.90,North,360,4.0,6.0,77,0.00,,,0.00,Wunderground v.1.15,2013-05-07 14:54:00,
2013-05-07 10:59:00,57.2,51.1,29.89,North,355,4.0,4.0,80,0.00,,,0.00,Wunderground v.1.15,2013-05-07 14:59:00,
2013-05-07 11:10:00,57.1,49.2,29.89,NW,312,1.0,1.0,75,0.00,,,0.00,Wunderground v.1.15,2013-05-07 15:10:00,
2013-05-07 11:19:00,58.0,50.1,29.89,NNW,333,2.0,8.0,75,0.00,,,0.00,Wunderground v.1.15,2013-05-07 15:19:00,
2013-05-07 11:24:00,58.4,50.1,29.90,NNW,342,3.0,8.0,74,0.00,,,0.00,Wunderground v.1.15,2013-05-07 15:24:00,
2013-05-07 11:29:00,58.0,48.6,29.90,North,355,3.0,3.0,71,0.00,,,0.00,Wunderground v.1.15,2013-05-07 15:29:00,
2013-05-07 11:39:00,59.0,49.2,29.89,North,350,3.0,8.0,70,0.00,,,0.00,Wunderground v.1.15,2013-05-07 15:39:00,
2013-05-07 11:44:00,58.4,48.3,29.89,North,350,5.0,8.0,69,0.00,,,0.00,Wunderground v.1.15,2013-05-07 15:44:00,
2013-05-07 11:49:00,59.0,48.1,29.89,North,350,4.0,8.0,67,0.00,,,0.00,Wunderground v.1.15,2013-05-07 15:49:00,
2013-05-07 11:54:00,60.0,48.6,29.89,NNW,343,3.0,8.0,66,0.00,,,0.00,Wunderground v.1.15,2013-05-07 15:54:00,
2013-05-07 12:04:00,60.2,49.6,29.89,NNW,348,4.0,10.0,68,0.00,,,0.00,Wunderground v.1.15,2013-05-07 16:04:00,
2013-05-07 12:14:00,60.6,48.8,29.88,NNW,338,3.0,10.0,65,0.00,,,0.00,Wunderground v.1.15,2013-05-07 16:14:00,
2013-05-07 12:24:00,60.6,47.1,29.88,NNW,342,3.0,3.0,61,0.00,,,0.00,Wunderground v.1.15,2013-05-07 16:24:00,
2013-05-07 12:29:00,59.6,47.0,29.88,NNW,348,3.0,3.0,63,0.00,,,0.00,Wunderground v.1.15,2013-05-07 16:29:00,
2013-05-07 12:39:00,59.7,48.7,29.88,NNW,340,2.0,10.0,67,0.00,,,0.00,Wunderground v.1.15,2013-05-07 16:39:00,
2013-05-07 12:44:00,60.0,46.5,29.88,North,11,3.0,10.0,61,0.00,,,0.00,Wunderground v.1.15,2013-05-07 16:44:00,
2013-05-07 12:54:00,59.0,48.4,29.88,North,349,3.0,4.0,68,0.00,,,0.00,Wunderground v.1.15,2013-05-07 16:54:00,
2013-05-07 12:59:00,58.8,48.6,29.88,North,350,4.0,10.0,69,0.00,,,0.00,Wunderground v.1.15,2013-05-07 16:59:00,
2013-05-07 13:05:00,59.0,48.4,29.88,North,350,4.0,10.0,68,0.00,,,0.00,Wunderground v.1.15,2013-05-07 17:05:00,
2013-05-07 13:14:00,59.0,48.4,29.88,NW,322,2.0,8.0,68,0.00,,,0.00,Wunderground v.1.15,2013-05-07 17:14:00,
2013-05-07 13:19:00,59.0,48.8,29.87,NNW,336,1.0,8.0,69,0.00,,,0.00,Wunderground v.1.15,2013-05-07 17:19:00,
2013-05-07 13:24:00,59.0,48.8,29.87,NNW,346,2.0,8.0,69,0.00,,,0.00,Wunderground v.1.15,2013-05-07 17:24:00,
2013-05-07 13:29:00,59.0,48.8,29.87,NNW,335,4.0,4.0,69,0.00,,,0.00,Wunderground v.1.15,2013-05-07 17:29:00,
2013-05-07 13:34:00,59.5,47.7,29.87,NNW,344,4.0,5.0,65,0.00,,,0.00,Wunderground v.1.15,2013-05-07 17:34:00,
2013-05-07 13:39:00,61.5,50.8,29.87,North,350,4.0,8.0,68,0.00,,,0.00,Wunderground v.1.15,2013-05-07 17:39:00,
2013-05-07 13:44:00,62.9,52.6,29.87,NNW,333,4.0,8.0,69,0.00,,,0.00,Wunderground v.1.15,2013-05-07 17:44:00,
2013-05-07 13:54:00,64.3,50.6,29.86,North,355,3.0,5.0,61,0.00,,,0.00,Wunderground v.1.15,2013-05-07 17:54:00,
2013-05-07 13:59:00,65.3,49.7,29.86,North,5,5.0,5.0,57,0.00,,,0.00,Wunderground v.1.15,2013-05-07 17:59:00,
2013-05-07 14:04:00,64.7,50.5,29.86,NW,324,4.0,11.0,60,0.00,,,0.00,Wunderground v.1.15,2013-05-07 18:04:00,
2013-05-07 14:14:00,63.5,49.8,29.86,NNW,346,2.0,11.0,61,0.00,,,0.00,Wunderground v.1.15,2013-05-07 18:14:00,
2013-05-07 14:24:00,62.9,47.0,29.85,NNW,346,2.0,11.0,56,0.00,,,0.00,Wunderground v.1.15,2013-05-07 18:24:00,
2013-05-07 14:34:00,62.7,47.2,29.85,NNW,342,4.0,11.0,57,0.00,,,0.00,Wunderground v.1.15,2013-05-07 18:34:00,
2013-05-07 14:39:00,62.7,49.1,29.85,North,355,3.0,11.0,61,0.00,,,0.00,Wunderground v.1.15,2013-05-07 18:39:00,
2013-05-07 14:44:00,62.7,48.2,29.85,NNW,334,4.0,11.0,59,0.00,,,0.00,Wunderground v.1.15,2013-05-07 18:44:00,
2013-05-07 14:49:00,63.2,48.6,29.85,NNW,340,5.0,11.0,59,0.00,,,0.00,Wunderground v.1.15,2013-05-07 18:49:00,
2013-05-07 14:54:00,64.1,48.5,29.85,North,355,5.0,11.0,57,0.00,,,0.00,Wunderground v.1.15,2013-05-07 18:54:00,
2013-05-07 14:59:00,63.5,48.5,29.85,North,360,6.0,6.0,58,0.00,,,0.00,Wunderground v.1.15,2013-05-07 18:59:00,
2013-05-07 15:05:00,64.3,50.6,29.85,North,355,7.0,7.0,61,0.00,,,0.00,Wunderground v.1.15,2013-05-07 19:05:00,
2013-05-07 15:14:00,64.9,51.1,29.85,North,10,7.0,10.0,61,0.00,,,0.00,Wunderground v.1.15,2013-05-07 19:14:00,
2013-05-07 15:19:00,65.5,50.3,29.85,North,360,7.0,10.0,58,0.00,,,0.00,Wunderground v.1.15,2013-05-07 19:19:00,
2013-05-07 15:24:00,65.2,48.1,29.85,North,355,6.0,10.0,54,0.00,,,0.00,Wunderground v.1.15,2013-05-07 19:24:00,
2013-05-07 15:34:00,67.3,51.1,29.84,North,355,5.0,10.0,56,0.00,,,0.00,Wunderground v.1.15,2013-05-07 19:34:00,
2013-05-07 15:39:00,67.7,49.4,29.84,NNW,344,5.0,10.0,52,0.00,,,0.00,Wunderground v.1.15,2013-05-07 19:39:00,
2013-05-07 15:44:00,65.8,48.2,29.84,WNW,301,6.0,10.0,53,0.00,,,0.00,Wunderground v.1.15,2013-05-07 19:44:00,
2013-05-07 15:49:00,64.9,50.2,29.84,NNW,346,5.0,10.0,59,0.00,,,0.00,Wunderground v.1.15,2013-05-07 19:49:00,
2013-05-07 15:54:00,65.8,51.1,29.84,North,5,5.0,10.0,59,0.00,,,0.00,Wunderground v.1.15,2013-05-07 19:54:00,
2013-05-07 16:04:00,67.4,50.7,29.84,North,355,5.0,6.0,55,0.00,,,0.00,Wunderground v.1.15,2013-05-07 20:04:00,
2013-05-07 16:14:00,66.1,46.9,29.84,NNW,348,5.0,12.0,50,0.00,,,0.00,Wunderground v.1.15,2013-05-07 20:14:00,
2013-05-07 16:19:00,66.7,47.5,29.84,NNW,330,4.0,12.0,50,0.00,,,0.00,Wunderground v.1.15,2013-05-07 20:19:00,
2013-05-07 16:24:00,65.7,47.1,29.84,North,351,4.0,12.0,51,0.00,,,0.00,Wunderground v.1.15,2013-05-07 20:24:00,
2013-05-07 16:29:00,64.3,47.8,29.84,North,360,5.0,5.0,55,0.00,,,0.00,Wunderground v.1.15,2013-05-07 20:29:00,
2013-05-07 16:39:00,63.7,49.1,29.84,SSW,198,5.0,5.0,59,0.00,,,0.00,Wunderground v.1.15,2013-05-07 20:39:00,
2013-05-07 16:44:00,62.4,50.1,29.84,SSW,198,2.0,12.0,64,0.00,,,0.00,Wunderground v.1.15,2013-05-07 20:44:00,
2013-05-07 16:49:00,60.9,47.8,29.85,SSW,193,2.0,2.0,62,0.00,,,0.00,Wunderground v.1.15,2013-05-07 20:49:00,
2013-05-07 16:54:00,59.9,48.9,29.85,SSW,205,2.0,12.0,67,0.00,,,0.00,Wunderground v.1.15,2013-05-07 20:54:00,
2013-05-07 16:59:00,59.0,48.4,29.86,NNW,342,1.0,12.0,68,0.00,,,0.00,Wunderground v.1.15,2013-05-07 20:59:00,
2013-05-07 17:09:00,58.2,48.5,29.86,South,190,1.0,1.0,70,0.00,,,0.00,Wunderground v.1.15,2013-05-07 21:09:00,
2013-05-07 17:14:00,57.8,48.1,29.87,South,190,0.0,11.0,70,0.00,,,0.00,Wunderground v.1.15,2013-05-07 21:14:00,
2013-05-07 17:19:00,57.4,47.7,29.87,South,190,0.0,11.0,70,0.00,,,0.00,Wunderground v.1.15,2013-05-07 21:19:00,
2013-05-07 17:24:00,57.2,47.9,29.88,NNW,342,0.0,11.0,71,0.00,,,0.00,Wunderground v.1.15,2013-05-07 21:24:00,
2013-05-07 17:29:00,57.2,48.6,29.88,NNW,347,2.0,2.0,73,0.00,,,0.00,Wunderground v.1.15,2013-05-07 21:29:00,
2013-05-07 17:34:00,57.5,48.5,29.88,North,355,3.0,3.0,72,0.00,,,0.00,Wunderground v.1.15,2013-05-07 21:34:00,
2013-05-07 17:44:00,57.7,49.1,29.88,NNW,342,2.0,2.0,73,0.00,,,0.00,Wunderground v.1.15,2013-05-07 21:44:00,
2013-05-07 17:49:00,57.8,48.8,29.88,NNW,342,1.0,1.0,72,0.00,,,0.00,Wunderground v.1.15,2013-05-07 21:49:00,
2013-05-07 17:59:00,58.7,49.7,29.88,NNW,333,1.0,11.0,72,0.00,,,0.00,Wunderground v.1.15,2013-05-07 21:59:00,
2013-05-07 18:05:00,59.7,50.3,29.88,NNW,343,2.0,11.0,71,0.00,,,0.00,Wunderground v.1.15,2013-05-07 22:05:00,
2013-05-07 18:14:00,59.7,49.5,29.88,NNW,339,2.0,8.0,69,0.00,,,0.00,Wunderground v.1.15,2013-05-07 22:14:00,
2013-05-07 18:24:00,59.3,49.9,29.89,NNW,348,2.0,8.0,71,0.00,,,0.00,Wunderground v.1.15,2013-05-07 22:24:00,
2013-05-07 18:29:00,59.0,49.2,29.88,NNW,348,2.0,2.0,70,0.00,,,0.00,Wunderground v.1.15,2013-05-07 22:29:00,
2013-05-07 18:34:00,58.6,49.6,29.89,North,350,2.0,6.0,72,0.00,,,0.00,Wunderground v.1.15,2013-05-07 22:34:00,
2013-05-07 18:39:00,58.1,49.1,29.88,NNW,348,3.0,3.0,72,0.00,,,0.00,Wunderground v.1.15,2013-05-07 22:39:00,
2013-05-07 18:44:00,57.7,49.1,29.89,North,351,4.0,4.0,73,0.00,,,0.00,Wunderground v.1.15,2013-05-07 22:44:00,
2013-05-07 18:49:00,57.3,49.1,29.89,North,351,3.0,3.0,74,0.00,,,0.00,Wunderground v.1.15,2013-05-07 22:49:00,
2013-05-07 18:59:00,57.0,49.5,29.89,North,355,2.0,8.0,76,0.00,,,0.00,Wunderground v.1.15,2013-05-07 22:59:00,
2013-05-07 19:04:00,56.9,49.4,29.89,North,355,1.0,8.0,76,0.00,,,0.00,Wunderground v.1.15,2013-05-07 23:04:00,
2013-05-07 19:14:00,56.5,48.7,29.89,NNW,348,2.0,6.0,75,0.00,,,0.00,Wunderground v.1.15,2013-05-07 23:14:00,
2013-05-07 19:19:00,56.3,48.8,29.90,North,355,3.0,8.0,76,0.00,,,0.00,Wunderground v.1.15,2013-05-07 23:19:00,
2013-05-07 19:29:00,55.6,48.2,29.90,North,355,5.0,8.0,76,0.00,,,0.00,Wunderground v.1.15,2013-05-07 23:29:00,
2013-05-07 19:34:00,55.4,48.0,29.90,North,5,5.0,8.0,76,0.00,,,0.00,Wunderground v.1.15,2013-05-07 23:34:00,
2013-05-07 19:39:00,55.1,48.0,29.90,North,355,5.0,8.0,77,0.00,,,0.00,Wunderground v.1.15,2013-05-07 23:39:00,
2013-05-07 19:44:00,54.9,47.8,29.91,North,355,4.0,8.0,77,0.00,,,0.00,Wunderground v.1.15,2013-05-07 23:44:00,
2013-05-07 19:49:00,54.7,48.0,29.91,North,355,4.0,8.0,78,0.00,,,0.00,Wunderground v.1.15,2013-05-07 23:49:00,
2013-05-07 19:54:00,54.5,48.1,29.91,North,355,4.0,8.0,79,0.00,,,0.00,Wunderground v.1.15,2013-05-07 23:54:00,
2013-05-07 19:59:00,54.2,47.8,29.91,North,355,4.0,4.0,79,0.00,,,0.00,Wunderground v.1.15,2013-05-07 23:59:00,
2013-05-07 20:09:00,53.8,48.1,29.92,North,355,3.0,11.0,81,0.00,,,0.00,Wunderground v.1.15,2013-05-08 00:09:00,
2013-05-07 20:14:00,53.5,48.1,29.92,North,355,4.0,11.0,82,0.00,,,0.00,Wunderground v.1.15,2013-05-08 00:14:00,
2013-05-07 20:19:00,53.2,48.5,29.92,North,351,3.0,3.0,84,0.00,,,0.01,Wunderground v.1.15,2013-05-08 00:19:00,
2013-05-07 20:24:00,52.9,48.2,29.92,North,351,2.0,11.0,84,0.00,,,0.01,Wunderground v.1.15,2013-05-08 00:24:00,
2013-05-07 20:29:00,52.6,48.2,29.92,North,351,2.0,2.0,85,0.00,,,0.01,Wunderground v.1.15,2013-05-08 00:29:00,
2013-05-07 20:34:00,52.4,48.3,29.93,North,351,1.0,11.0,86,0.00,,,0.01,Wunderground v.1.15,2013-05-08 00:34:00,
2013-05-07 20:44:00,52.0,48.3,29.92,North,351,0.0,11.0,87,0.00,,,0.01,Wunderground v.1.15,2013-05-08 00:44:00,
2013-05-07 20:49:00,51.9,48.5,29.92,North,351,0.0,11.0,88,0.00,,,0.01,Wunderground v.1.15,2013-05-08 00:49:00,
2013-05-07 20:54:00,51.8,48.7,29.92,North,351,0.0,11.0,89,0.00,,,0.01,Wunderground v.1.15,2013-05-08 00:54:00,
2013-05-07 20:59:00,51.7,48.6,29.93,North,351,0.0,11.0,89,0.00,,,0.01,Wunderground v.1.15,2013-05-08 00:59:00,
2013-05-07 21:04:00,51.6,48.5,29.92,North,351,0.0,11.0,89,0.00,,,0.01,Wunderground v.1.15,2013-05-08 01:04:00,
2013-05-07 21:14:00,51.5,48.4,29.92,North,351,0.0,6.0,89,0.00,,,0.01,Wunderground v.1.15,2013-05-08 01:14:00,
2013-05-07 21:19:00,51.5,48.4,29.92,North,351,0.0,6.0,89,0.00,,,0.01,Wunderground v.1.15,2013-05-08 01:19:00,
2013-05-07 21:24:00,51.5,48.7,29.93,North,351,0.0,6.0,90,0.00,,,0.01,Wunderground v.1.15,2013-05-08 01:24:00,
2013-05-07 21:29:00,51.4,48.6,29.93,North,351,0.0,6.0,90,0.00,,,0.01,Wunderground v.1.15,2013-05-08 01:29:00,
2013-05-07 21:34:00,51.4,48.6,29.92,North,351,0.0,6.0,90,0.00,,,0.01,Wunderground v.1.15,2013-05-08 01:34:00,
2013-05-07 21:39:00,51.4,48.3,29.93,North,351,0.0,6.0,89,0.00,,,0.01,Wunderground v.1.15,2013-05-08 01:39:00,
2013-05-07 21:49:00,51.3,48.2,29.93,North,351,0.0,6.0,89,0.00,,,0.01,Wunderground v.1.15,2013-05-08 01:49:00,
2013-05-07 21:59:00,51.2,48.1,29.93,North,351,1.0,6.0,89,0.00,,,0.01,Wunderground v.1.15,2013-05-08 01:59:00,
2013-05-07 22:04:00,51.1,48.0,29.93,North,351,1.0,6.0,89,0.00,,,0.01,Wunderground v.1.15,2013-05-08 02:04:00,
2013-05-07 22:14:00,51.1,48.0,29.93,North,351,1.0,2.0,89,0.00,,,0.01,Wunderground v.1.15,2013-05-08 02:14:00,
2013-05-07 22:19:00,51.1,48.0,29.93,North,351,1.0,1.0,89,0.00,,,0.01,Wunderground v.1.15,2013-05-08 02:19:00,
2013-05-07 22:24:00,51.2,48.1,29.93,North,351,1.0,4.0,89,0.00,,,0.01,Wunderground v.1.15,2013-05-08 02:24:00,
2013-05-07 22:29:00,51.3,48.2,29.93,North,351,2.0,2.0,89,0.00,,,0.01,Wunderground v.1.15,2013-05-08 02:29:00,
2013-05-07 22:34:00,51.4,48.3,29.93,North,351,2.0,4.0,89,0.00,,,0.01,Wunderground v.1.15,2013-05-08 02:34:00,
2013-05-07 22:44:00,51.6,48.8,29.93,North,351,3.0,6.0,90,0.00,,,0.01,Wunderground v.1.15,2013-05-08 02:44:00,
2013-05-07 22:49:00,51.6,48.8,29.93,North,351,3.0,3.0,90,0.00,,,0.01,Wunderground v.1.15,2013-05-08 02:49:00,
2013-05-07 22:54:00,51.5,49.0,29.93,North,351,2.0,3.0,91,0.00,,,0.01,Wunderground v.1.15,2013-05-08 02:54:00,
2013-05-07 22:59:00,51.4,48.9,29.93,North,355,2.0,4.0,91,0.00,,,0.01,Wunderground v.1.15,2013-05-08 02:59:00,
2013-05-07 23:04:00,51.3,49.1,29.93,North,355,3.0,7.0,92,0.00,,,0.01,Wunderground v.1.15,2013-05-08 03:04:00,
2013-05-07 23:14:00,51.1,48.9,29.93,North,355,2.0,7.0,92,0.00,,,0.02,Wunderground v.1.15,2013-05-08 03:14:00,
2013-05-07 23:19:00,51.1,48.9,29.93,North,355,2.0,7.0,92,0.00,,,0.02,Wunderground v.1.15,2013-05-08 03:19:00,
2013-05-07 23:24:00,51.0,48.8,29.93,North,355,1.0,7.0,92,0.00,,,0.02,Wunderground v.1.15,2013-05-08 03:24:00,
2013-05-07 23:29:00,51.0,49.0,29.93,North,355,1.0,1.0,93,0.00,,,0.02,Wunderground v.1.15,2013-05-08 03:29:00,
2013-05-07 23:34:00,51.0,49.0,29.93,North,355,1.0,7.0,93,0.00,,,0.02,Wunderground v.1.15,2013-05-08 03:34:00,
2013-05-07 23:39:00,51.0,48.8,29.93,North,355,1.0,1.0,92,0.00,,,0.02,Wunderground v.1.15,2013-05-08 03:39:00,
2013-05-07 23:44:00,51.0,48.8,29.93,North,355,1.0,7.0,92,0.00,,,0.02,Wunderground v.1.15,2013-05-08 03:44:00,
2013-05-07 23:49:00,51.0,49.0,29.93,North,355,0.0,7.0,93,0.00,,,0.02,Wunderground v.1.15,2013-05-08 03:49:00,
2013-05-07 23:54:00,51.0,49.0,29.92,North,355,0.0,7.0,93,0.00,,,0.02,Wunderground v.1.15,2013-05-08 03:54:00,